Time;durP1;ratioP1;P1;durP2;ratioP2;P2;SDS_P1;SDS_P2;PMS_P1;PMS_P2;Temp;Humidity;BMP_temperature;BMP_pressure;BME280_temperature;BME280_humidity;BME280_pressure;Samples;Min_cycle;Max_cycle;Signal;HPM_P1;HPM_P2
2021/04/09 00:02:20;;;;;;;19.10;10.40;;;;;;;;;;5054818;28;20306;-78
2021/04/09 00:04:45;;;;;;;19.53;10.63;;;;;;;;;;5055052;28;20595;-79
2021/04/09 00:07:11;;;;;;;18.67;10.27;;;;;;;;;;5054650;28;20188;-78
2021/04/09 00:09:36;;;;;;;17.43;10.83;;;;;;;;;;5055171;28;20171;-78
2021/04/09 00:12:02;;;;;;;19.57;10.80;;;;;;;;;;5054702;28;20183;-78
2021/04/09 00:14:28;;;;;;;16.63;10.13;;;;;;;;;;5055392;28;20168;-78
2021/04/09 00:16:53;;;;;;;16.40;10.77;;;;;;;;;;5054544;28;20210;-78
2021/04/09 00:19:20;;;;;;;19.43;11.17;;;;;;;;;;5054662;28;20207;-79
2021/04/09 00:21:46;;;;;;;20.93;11.03;;;;;;;;;;5066599;28;20171;-79
2021/04/09 00:24:11;;;;;;;17.73;11.20;;;;;;;;;;5074662;28;20258;-78
2021/04/09 00:26:37;;;;;;;21.47;11.30;;;;;;;;;;5074604;28;20262;-78
2021/04/09 00:29:02;;;;;;;17.93;11.43;;;;;;;;;;5074291;28;20626;-79
2021/04/09 00:31:28;;;;;;;23.73;12.00;;;;;;;;;;5074227;28;20167;-78
2021/04/09 00:33:53;;;;;;;20.37;11.60;;;;;;;;;;5074723;28;20167;-78
2021/04/09 00:36:18;;;;;;;17.87;9.90;;;;;;;;;;5073128;28;20202;-78
2021/04/09 00:38:44;;;;;;;16.10;10.07;;;;;;;;;;5074554;28;20557;-78
2021/04/09 00:41:10;;;;;;;15.70;9.50;;;;;;;;;;5074889;28;20257;-79
2021/04/09 00:43:35;;;;;;;16.57;9.23;;;;;;;;;;5074164;28;20589;-79
2021/04/09 00:46:01;;;;;;;21.20;10.20;;;;;;;;;;5074336;28;20577;-79
2021/04/09 00:48:26;;;;;;;19.67;10.03;;;;;;;;;;5074261;28;20226;-79
2021/04/09 00:50:51;;;;;;;19.77;10.37;;;;;;;;;;5074777;28;20170;-79
2021/04/09 00:53:17;;;;;;;17.50;10.17;;;;;;;;;;5074153;28;20193;-79
2021/04/09 00:55:43;;;;;;;18.70;9.90;;;;;;;;;;5074127;28;20174;-79
2021/04/09 00:58:09;;;;;;;20.80;9.97;;;;;;;;;;5073987;28;20224;-79
2021/04/09 01:00:34;;;;;;;15.87;9.67;;;;;;;;;;5073651;28;20182;-79
2021/04/09 01:02:59;;;;;;;18.43;9.80;;;;;;;;;;5074013;28;20170;-79
2021/04/09 01:05:25;;;;;;;20.90;10.90;;;;;;;;;;5074056;28;20564;-79
2021/04/09 01:07:51;;;;;;;17.97;9.80;;;;;;;;;;5073703;28;20598;-79
2021/04/09 01:10:18;;;;;;;15.07;9.83;;;;;;;;;;5073946;28;20173;-79
2021/04/09 01:12:43;;;;;;;16.43;10.00;;;;;;;;;;5073150;28;20226;-78
2021/04/09 01:15:10;;;;;;;18.63;10.17;;;;;;;;;;5073922;28;20151;-79
2021/04/09 01:17:38;;;;;;;17.43;10.23;;;;;;;;;;5073594;28;20178;-79
2021/04/09 01:20:06;;;;;;;17.07;10.43;;;;;;;;;;5073769;28;20202;-78
2021/04/09 01:22:37;;;;;;;20.83;10.40;;;;;;;;;;5074511;28;20186;-79
2021/04/09 01:25:11;;;;;;;18.87;10.40;;;;;;;;;;5073936;28;20166;-78
2021/04/09 01:27:52;;;;;;;19.73;10.80;;;;;;;;;;5074040;28;20227;-79
2021/04/09 01:30:29;;;;;;;16.60;10.43;;;;;;;;;;5074020;28;20258;-78
2021/04/09 01:32:55;;;;;;;18.43;11.30;;;;;;;;;;5073407;28;20171;-79
2021/04/09 01:35:21;;;;;;;15.80;10.07;;;;;;;;;;5073421;28;20250;-79
2021/04/09 01:37:55;;;;;;;16.27;10.83;;;;;;;;;;5074136;28;20171;-79
2021/04/09 01:40:27;;;;;;;17.33;10.73;;;;;;;;;;5072792;28;20211;-78
2021/04/09 01:42:53;;;;;;;20.30;10.27;;;;;;;;;;5074035;28;20610;-79
2021/04/09 01:45:19;;;;;;;16.63;9.83;;;;;;;;;;5073600;28;20171;-79
2021/04/09 01:47:45;;;;;;;17.53;10.17;;;;;;;;;;5073319;28;20242;-79
2021/04/09 01:50:12;;;;;;;16.47;9.60;;;;;;;;;;5073792;28;20266;-79
2021/04/09 01:52:38;;;;;;;15.40;9.60;;;;;;;;;;5071854;28;20167;-79
2021/04/09 01:55:05;;;;;;;16.37;9.40;;;;;;;;;;5053915;28;20210;-79
2021/04/09 01:57:31;;;;;;;15.63;9.93;;;;;;;;;;5052907;28;20510;-79
2021/04/09 01:59:57;;;;;;;18.70;10.27;;;;;;;;;;5063482;28;20619;-79
2021/04/09 02:02:23;;;;;;;16.43;9.80;;;;;;;;;;5073163;28;20225;-79
2021/04/09 02:04:49;;;;;;;18.63;10.30;;;;;;;;;;5073105;28;20539;-79
2021/04/09 02:07:15;;;;;;;21.57;10.73;;;;;;;;;;5072986;28;20230;-79
2021/04/09 02:09:41;;;;;;;19.63;10.43;;;;;;;;;;5073297;28;20175;-79
2021/04/09 02:12:07;;;;;;;22.80;11.53;;;;;;;;;;5072905;28;20244;-79
2021/04/09 02:14:33;;;;;;;19.40;11.20;;;;;;;;;;5073076;28;20217;-79
2021/04/09 02:16:59;;;;;;;19.27;10.97;;;;;;;;;;5073321;28;20171;-79
2021/04/09 02:19:25;;;;;;;24.43;11.70;;;;;;;;;;5071693;28;20231;-79
2021/04/09 02:21:50;;;;;;;17.60;10.93;;;;;;;;;;5073754;28;20606;-79
2021/04/09 02:24:16;;;;;;;19.07;11.13;;;;;;;;;;5074759;28;20167;-79
2021/04/09 02:26:42;;;;;;;24.10;11.57;;;;;;;;;;5076309;28;20553;-79
2021/04/09 02:29:08;;;;;;;19.57;11.20;;;;;;;;;;5076855;28;20634;-80
2021/04/09 02:31:34;;;;;;;23.90;11.60;;;;;;;;;;5076576;28;20209;-80
2021/04/09 02:33:59;;;;;;;20.73;12.20;;;;;;;;;;5076973;28;20172;-79
2021/04/09 02:36:28;;;;;;;22.10;11.90;;;;;;;;;;5077143;28;20216;-79
2021/04/09 02:38:57;;;;;;;18.07;12.03;;;;;;;;;;5076473;28;20587;-78
2021/04/09 02:41:26;;;;;;;21.17;11.87;;;;;;;;;;5076778;28;20514;-79
2021/04/09 02:43:51;;;;;;;26.47;12.80;;;;;;;;;;5075931;28;20175;-79
2021/04/09 02:46:35;;;;;;;28.83;14.00;;;;;;;;;;5075142;28;20614;-79
2021/04/09 02:49:04;;;;;;;30.53;14.23;;;;;;;;;;5076216;28;20179;-79
2021/04/09 02:51:30;;;;;;;27.33;13.93;;;;;;;;;;5076776;28;20174;-79
2021/04/09 02:53:57;;;;;;;27.27;13.77;;;;;;;;;;5076427;28;20178;-79
2021/04/09 02:56:24;;;;;;;28.20;14.60;;;;;;;;;;5075556;28;20252;-79
2021/04/09 02:58:49;;;;;;;25.50;13.53;;;;;;;;;;5076490;28;20681;-78
2021/04/09 03:01:14;;;;;;;27.67;14.10;;;;;;;;;;5076550;28;20220;-79
2021/04/09 03:03:40;;;;;;;23.87;13.37;;;;;;;;;;5076007;28;20221;-78
2021/04/09 03:06:05;;;;;;;23.57;12.80;;;;;;;;;;5076171;28;20168;-78
2021/04/09 03:08:31;;;;;;;23.17;12.57;;;;;;;;;;5075856;28;20171;-78
2021/04/09 03:10:59;;;;;;;20.33;12.20;;;;;;;;;;5076218;28;20159;-78
2021/04/09 03:13:25;;;;;;;21.47;12.37;;;;;;;;;;5076044;28;20389;-78
2021/04/09 03:15:52;;;;;;;20.93;13.00;;;;;;;;;;5075750;28;20262;-79
2021/04/09 03:18:18;;;;;;;21.50;13.03;;;;;;;;;;5076512;28;20246;-78
2021/04/09 03:20:44;;;;;;;23.90;14.63;;;;;;;;;;5075931;28;20274;-78
2021/04/09 03:23:09;;;;;;;22.90;13.80;;;;;;;;;;5075700;28;20198;-78
2021/04/09 03:25:36;;;;;;;27.43;14.97;;;;;;;;;;5075842;28;20190;-78
2021/04/09 03:28:01;;;;;;;26.53;14.37;;;;;;;;;;5076089;28;20618;-78
2021/04/09 03:30:28;;;;;;;27.17;14.37;;;;;;;;;;5075836;28;20167;-78
2021/04/09 03:32:53;;;;;;;27.87;15.90;;;;;;;;;;5075736;28;20171;-78
2021/04/09 03:35:19;;;;;;;28.20;16.73;;;;;;;;;;5075349;28;20228;-78
2021/04/09 03:37:44;;;;;;;30.33;17.23;;;;;;;;;;5075735;28;20258;-78
2021/04/09 03:40:10;;;;;;;32.20;17.40;;;;;;;;;;5075539;28;20195;-78
2021/04/09 03:42:35;;;;;;;32.80;17.57;;;;;;;;;;5075935;28;20585;-78
2021/04/09 03:45:01;;;;;;;29.07;17.70;;;;;;;;;;5075419;28;20684;-78
2021/04/09 03:47:26;;;;;;;31.07;17.30;;;;;;;;;;5075627;28;20178;-78
2021/04/09 03:49:51;;;;;;;28.73;15.20;;;;;;;;;;5075024;28;20257;-78
2021/04/09 03:52:17;;;;;;;32.97;16.03;;;;;;;;;;5075690;28;20254;-78
2021/04/09 03:54:42;;;;;;;33.43;16.43;;;;;;;;;;5075293;28;20190;-79
2021/04/09 03:57:07;;;;;;;31.87;16.03;;;;;;;;;;5074899;28;20167;-78
2021/04/09 03:59:33;;;;;;;27.63;15.77;;;;;;;;;;5075190;28;20245;-78
2021/04/09 04:01:58;;;;;;;30.97;15.70;;;;;;;;;;5075167;28;20220;-78
2021/04/09 04:04:24;;;;;;;32.43;17.07;;;;;;;;;;5075293;28;20218;-79
2021/04/09 04:06:50;;;;;;;36.60;18.47;;;;;;;;;;5074616;28;20203;-79
2021/04/09 04:09:15;;;;;;;32.43;17.87;;;;;;;;;;5075200;28;20330;-79
2021/04/09 04:11:40;;;;;;;32.00;16.03;;;;;;;;;;5074629;28;20194;-79
2021/04/09 04:14:06;;;;;;;35.47;16.80;;;;;;;;;;5075483;28;20234;-79
2021/04/09 04:16:31;;;;;;;33.53;16.73;;;;;;;;;;5074813;28;20171;-79
2021/04/09 04:18:56;;;;;;;33.13;16.77;;;;;;;;;;5075008;28;20201;-79
2021/04/09 04:21:22;;;;;;;34.47;17.37;;;;;;;;;;5075303;28;20178;-79
2021/04/09 04:23:48;;;;;;;35.37;17.73;;;;;;;;;;5074759;28;20606;-79
2021/04/09 04:26:13;;;;;;;34.37;18.93;;;;;;;;;;5075070;28;20199;-79
2021/04/09 04:28:38;;;;;;;31.03;18.10;;;;;;;;;;5074867;28;20171;-79
2021/04/09 04:31:04;;;;;;;33.53;19.37;;;;;;;;;;5074911;28;20531;-79
2021/04/09 04:33:29;;;;;;;33.60;18.37;;;;;;;;;;5074873;28;20171;-79
2021/04/09 04:35:54;;;;;;;27.57;16.57;;;;;;;;;;5074493;28;20171;-79
2021/04/09 04:38:20;;;;;;;34.87;16.97;;;;;;;;;;5074711;28;20167;-79
2021/04/09 04:40:46;;;;;;;30.63;17.40;;;;;;;;;;5074135;28;20194;-79
2021/04/09 04:43:11;;;;;;;32.33;17.07;;;;;;;;;;5074420;28;20175;-79
2021/04/09 04:45:37;;;;;;;32.07;16.67;;;;;;;;;;5073905;28;20213;-79
2021/04/09 04:48:02;;;;;;;26.43;17.60;;;;;;;;;;5073512;28;20167;-79
2021/04/09 04:50:28;;;;;;;28.70;17.57;;;;;;;;;;5074279;28;20211;-79
2021/04/09 04:52:53;;;;;;;26.63;17.20;;;;;;;;;;5074043;28;20232;-79
2021/04/09 04:55:19;;;;;;;26.07;15.90;;;;;;;;;;5074829;28;20174;-79
2021/04/09 04:57:44;;;;;;;28.13;15.57;;;;;;;;;;5074323;28;20621;-79
2021/04/09 05:00:09;;;;;;;24.40;16.27;;;;;;;;;;5074156;28;20673;-79
2021/04/09 05:02:35;;;;;;;28.50;18.33;;;;;;;;;;5074141;28;20167;-79
2021/04/09 05:05:00;;;;;;;28.03;16.87;;;;;;;;;;5074901;28;20171;-80
2021/04/09 05:07:26;;;;;;;27.80;17.83;;;;;;;;;;5073979;28;20183;-80
2021/04/09 05:09:51;;;;;;;23.67;16.53;;;;;;;;;;5074363;28;20258;-80
2021/04/09 05:12:16;;;;;;;25.53;16.80;;;;;;;;;;5073759;28;20610;-80
2021/04/09 05:14:42;;;;;;;23.73;15.70;;;;;;;;;;5074079;28;20159;-80
2021/04/09 05:17:07;;;;;;;27.77;17.80;;;;;;;;;;5072680;28;20614;-80
2021/04/09 05:19:32;;;;;;;27.40;17.83;;;;;;;;;;5073834;28;20206;-80
2021/04/09 05:21:57;;;;;;;25.63;18.83;;;;;;;;;;5073934;28;20173;-80
2021/04/09 05:24:23;;;;;;;22.67;18.17;;;;;;;;;;5073865;28;20278;-81
2021/04/09 05:26:48;;;;;;;24.55;18.17;;;;;;;;;;5073628;28;20167;-81
2021/04/09 05:29:13;;;;;;;26.20;19.30;;;;;;;;;;5074145;28;20614;-80
2021/04/09 05:31:39;;;;;;;25.38;19.48;;;;;;;;;;5073647;28;20163;-77
2021/04/09 05:34:04;;;;;;;23.63;18.10;;;;;;;;;;5073763;28;20164;-77
2021/04/09 05:36:29;;;;;;;21.92;16.55;;;;;;;;;;5073507;28;20627;-77
2021/04/09 05:38:55;;;;;;;23.23;15.82;;;;;;;;;;5073668;28;20198;-77
2021/04/09 05:41:21;;;;;;;21.15;16.30;;;;;;;;;;5073597;28;20178;-77
2021/04/09 05:43:46;;;;;;;18.67;15.75;;;;;;;;;;5073891;28;20614;-78
2021/04/09 05:46:12;;;;;;;22.13;16.08;;;;;;;;;;5074273;28;20167;-78
2021/04/09 05:48:37;;;;;;;24.08;18.15;;;;;;;;;;5073589;28;20164;-78
2021/04/09 05:51:02;;;;;;;22.35;17.85;;;;;;;;;;5073912;28;20167;-77
2021/04/09 05:53:27;;;;;;;20.45;17.90;;;;;;;;;;5073352;28;20167;-77
2021/04/09 05:55:53;;;;;;;23.80;16.30;;;;;;;;;;5074178;28;20247;-77
2021/04/09 05:58:18;;;;;;;20.25;16.00;;;;;;;;;;5075113;28;20191;-77
2021/04/09 06:00:43;;;;;;;18.33;15.48;;;;;;;;;;5077502;28;20179;-78
2021/04/09 06:03:09;;;;;;;19.65;16.33;;;;;;;;;;5077472;28;20167;-80
2021/04/09 06:05:34;;;;;;;18.23;16.27;;;;;;;;;;5077128;28;20182;-80
2021/04/09 06:08:00;;;;;;;20.20;16.20;;;;;;;;;;5077265;28;20183;-80
2021/04/09 06:10:25;;;;;;;18.83;16.83;;;;;;;;;;5077857;28;20269;-80
2021/04/09 06:12:50;;;;;;;21.80;17.52;;;;;;;;;;5077040;28;20287;-78
2021/04/09 06:15:16;;;;;;;19.65;16.13;;;;;;;;;;5076918;28;20159;-78
2021/04/09 06:17:43;;;;;;;19.77;16.30;;;;;;;;;;5077162;28;20175;-78
2021/04/09 06:20:08;;;;;;;19.48;17.33;;;;;;;;;;5076843;28;20274;-80
2021/04/09 06:22:34;;;;;;;20.38;17.33;;;;;;;;;;5077291;28;20685;-80
2021/04/09 06:24:59;;;;;;;17.25;15.43;;;;;;;;;;5077035;28;20174;-80
2021/04/09 06:27:24;;;;;;;17.63;15.82;;;;;;;;;;5077113;28;20560;-80
2021/04/09 06:29:49;;;;;;;18.00;15.95;;;;;;;;;;5076914;28;20614;-81
2021/04/09 06:32:15;;;;;;;17.50;15.68;;;;;;;;;;5077434;28;20182;-81
2021/04/09 06:34:40;;;;;;;18.83;15.60;;;;;;;;;;5077392;28;20171;-81
2021/04/09 06:37:06;;;;;;;16.85;15.15;;;;;;;;;;5069276;28;20210;-81
2021/04/09 06:39:32;;;;;;;18.33;16.40;;;;;;;;;;5072248;28;20199;-81
2021/04/09 06:41:57;;;;;;;20.73;18.50;;;;;;;;;;5061850;28;20618;-78
2021/04/09 06:44:23;;;;;;;17.85;16.05;;;;;;;;;;5068228;28;20176;-78
2021/04/09 06:46:48;;;;;;;17.38;14.80;;;;;;;;;;5058889;28;20262;-78
2021/04/09 06:49:13;;;;;;;16.00;14.35;;;;;;;;;;5062494;28;20171;-78
2021/04/09 06:51:42;;;;;;;14.35;12.85;;;;;;;;;;5066502;28;20183;-78
2021/04/09 06:54:10;;;;;;;14.63;12.77;;;;;;;;;;5068983;28;20181;-78
2021/04/09 06:56:36;;;;;;;12.48;11.25;;;;;;;;;;5065536;28;20549;-78
2021/04/09 06:59:03;;;;;;;15.75;14.15;;;;;;;;;;5075368;28;20187;-78
2021/04/09 07:01:29;;;;;;;15.80;14.20;;;;;;;;;;5076376;28;20618;-78
2021/04/09 07:03:55;;;;;;;15.95;14.45;;;;;;;;;;5076624;28;20175;-78
2021/04/09 07:06:21;;;;;;;16.75;15.15;;;;;;;;;;5076490;28;20226;-78
2021/04/09 07:08:46;;;;;;;24.90;22.48;;;;;;;;;;5075315;28;20228;-78
2021/04/09 07:11:11;;;;;;;18.98;16.98;;;;;;;;;;5075595;28;20175;-78
2021/04/09 07:13:47;;;;;;;20.27;18.08;;;;;;;;;;5076310;28;20230;-81
2021/04/09 07:16:12;;;;;;;17.30;15.60;;;;;;;;;;5075857;28;20571;-81
2021/04/09 07:18:50;;;;;;;20.67;18.40;;;;;;;;;;5075681;28;20206;-81
2021/04/09 07:21:22;;;;;;;20.48;18.27;;;;;;;;;;5076052;28;20163;-79
2021/04/09 07:23:49;;;;;;;16.23;14.52;;;;;;;;;;5075937;28;20618;-79
2021/04/09 07:26:34;;;;;;;17.58;15.65;;;;;;;;;;5075911;28;20167;-79
2021/04/09 07:28:59;;;;;;;17.73;15.85;;;;;;;;;;5075531;28;20183;-78
2021/04/09 07:31:28;;;;;;;15.68;13.90;;;;;;;;;;5054984;28;20179;-79
2021/04/09 07:33:54;;;;;;;17.15;15.32;;;;;;;;;;5056449;28;20172;-81
2021/04/09 07:36:19;;;;;;;21.17;17.70;;;;;;;;;;5057773;28;20168;-81
2021/04/09 07:38:50;;;;;;;16.67;14.95;;;;;;;;;;5066929;28;20222;-81
2021/04/09 07:41:17;;;;;;;17.58;15.77;;;;;;;;;;5055554;28;20194;-81
2021/04/09 07:43:43;;;;;;;18.08;15.50;;;;;;;;;;5061970;28;20179;-80
2021/04/09 07:46:26;;;;;;;18.70;15.63;;;;;;;;;;5074272;28;20217;-81
2021/04/09 07:49:02;;;;;;;15.77;14.20;;;;;;;;;;5074051;28;20540;-81
2021/04/09 07:51:28;;;;;;;16.05;14.35;;;;;;;;;;5074979;28;20171;-80
2021/04/09 07:53:53;;;;;;;19.27;14.40;;;;;;;;;;5074568;28;20179;-80
2021/04/09 07:56:18;;;;;;;16.50;13.40;;;;;;;;;;5075182;28;20177;-80
2021/04/09 07:58:44;;;;;;;14.95;13.35;;;;;;;;;;5075264;28;20248;-80
2021/04/09 08:01:19;;;;;;;17.67;12.02;;;;;;;;;;5075070;28;20516;-80
2021/04/09 08:03:44;;;;;;;13.68;10.88;;;;;;;;;;5075013;28;20175;-80
2021/04/09 08:06:13;;;;;;;17.13;12.90;;;;;;;;;;5074853;28;20172;-80
2021/04/09 08:08:59;;;;;;;15.43;13.05;;;;;;;;;;5074612;28;20237;-80
2021/04/09 08:11:37;;;;;;;12.70;10.88;;;;;;;;;;5074404;28;20182;-80
2021/04/09 08:14:06;;;;;;;11.25;10.10;;;;;;;;;;5074995;28;20231;-80
2021/04/09 08:16:54;;;;;;;12.75;10.50;;;;;;;;;;5074150;28;20201;-80
2021/04/09 08:19:24;;;;;;;12.82;10.60;;;;;;;;;;5072468;28;20224;-80
2021/04/09 08:21:51;;;;;;;10.87;9.73;;;;;;;;;;5069457;28;20207;-80
2021/04/09 08:24:17;;;;;;;15.87;12.13;;;;;;;;;;5069828;28;20237;-80
2021/04/09 08:26:42;;;;;;;13.23;10.87;;;;;;;;;;5071746;28;20186;-80
2021/04/09 08:29:09;;;;;;;16.50;12.23;;;;;;;;;;5055304;28;20176;-80
2021/04/09 08:31:34;;;;;;;12.87;10.23;;;;;;;;;;5068867;28;20180;-80
2021/04/09 08:33:59;;;;;;;15.47;10.80;;;;;;;;;;5074421;28;20212;-80
2021/04/09 08:36:28;;;;;;;14.43;10.67;;;;;;;;;;5073143;28;20179;-80
2021/04/09 08:38:54;;;;;;;14.27;10.90;;;;;;;;;;5074258;28;20199;-80
2021/04/09 08:41:20;;;;;;;12.07;10.77;;;;;;;;;;5064812;28;20176;-80
2021/04/09 08:43:45;;;;;;;11.87;9.40;;;;;;;;;;5062087;28;20176;-80
2021/04/09 08:46:11;;;;;;;10.80;8.30;;;;;;;;;;5063420;28;20178;-80
2021/04/09 08:48:37;;;;;;;10.47;8.20;;;;;;;;;;5063699;28;20195;-80
2021/04/09 08:51:04;;;;;;;8.63;7.73;;;;;;;;;;5062644;28;20174;-80
2021/04/09 08:53:29;;;;;;;10.33;9.20;;;;;;;;;;5064402;28;20216;-80
2021/04/09 08:55:55;;;;;;;11.37;8.30;;;;;;;;;;5071806;28;20171;-80
2021/04/09 08:58:21;;;;;;;12.60;8.20;;;;;;;;;;5074036;28;20691;-80
2021/04/09 09:00:47;;;;;;;9.13;7.43;;;;;;;;;;5074142;28;20175;-80
2021/04/09 09:03:28;;;;;;;11.77;8.67;;;;;;;;;;5074056;28;20175;-80
2021/04/09 09:06:01;;;;;;;12.30;9.70;;;;;;;;;;5072497;28;20217;-80
2021/04/09 09:08:45;;;;;;;11.50;8.87;;;;;;;;;;5072498;28;20203;-80
2021/04/09 09:11:11;;;;;;;14.47;9.33;;;;;;;;;;5073600;28;20521;-80
2021/04/09 09:13:43;;;;;;;11.40;8.60;;;;;;;;;;5072440;28;20219;-80
2021/04/09 09:16:16;;;;;;;10.00;8.07;;;;;;;;;;5073786;28;20637;-79
2021/04/09 09:18:42;;;;;;;13.17;9.97;;;;;;;;;;5073378;28;20203;-80
2021/04/09 09:21:09;;;;;;;10.10;8.30;;;;;;;;;;5073414;28;20199;-79
2021/04/09 09:23:46;;;;;;;8.97;7.93;;;;;;;;;;5073442;28;20182;-80
2021/04/09 09:26:23;;;;;;;11.43;8.50;;;;;;;;;;5073379;28;20182;-80
2021/04/09 09:29:07;;;;;;;12.93;9.23;;;;;;;;;;5073464;28;20171;-80
2021/04/09 09:31:34;;;;;;;9.37;8.30;;;;;;;;;;5067437;28;20674;-80
2021/04/09 09:34:18;;;;;;;11.63;9.00;;;;;;;;;;5072844;28;20170;-79
2021/04/09 09:37:02;;;;;;;8.87;7.30;;;;;;;;;;5073552;28;20167;-79
2021/04/09 09:39:38;;;;;;;9.20;7.17;;;;;;;;;;5068066;28;20693;-79
2021/04/09 09:42:06;;;;;;;10.97;6.87;;;;;;;;;;5073543;28;20174;-79
2021/04/09 09:44:31;;;;;;;7.27;6.20;;;;;;;;;;5073586;28;20171;-79
2021/04/09 09:46:58;;;;;;;9.30;6.30;;;;;;;;;;5073746;28;20636;-79
2021/04/09 09:49:24;;;;;;;8.43;6.27;;;;;;;;;;5056264;28;20191;-79
2021/04/09 09:51:49;;;;;;;6.70;6.00;;;;;;;;;;5051844;28;20210;-79
2021/04/09 09:54:24;;;;;;;6.83;6.13;;;;;;;;;;5057059;28;20199;-79
2021/04/09 09:56:49;;;;;;;8.33;6.33;;;;;;;;;;5052973;28;20233;-80
2021/04/09 09:59:21;;;;;;;7.27;5.77;;;;;;;;;;5053235;28;20200;-79
2021/04/09 10:01:53;;;;;;;6.67;5.93;;;;;;;;;;5053319;28;20183;-79
2021/04/09 10:04:19;;;;;;;6.90;6.20;;;;;;;;;;5053241;28;20633;-79
2021/04/09 10:06:55;;;;;;;7.70;6.90;;;;;;;;;;5072303;28;20199;-79
2021/04/09 10:09:24;;;;;;;7.80;6.70;;;;;;;;;;5073405;28;20155;-79
2021/04/09 10:11:49;;;;;;;7.10;6.10;;;;;;;;;;5073339;28;20175;-78
2021/04/09 10:14:14;;;;;;;6.80;6.10;;;;;;;;;;5072370;28;20776;-79
2021/04/09 10:16:40;;;;;;;8.70;6.10;;;;;;;;;;5073368;28;20174;-80
2021/04/09 10:19:06;;;;;;;6.97;6.20;;;;;;;;;;5072884;28;20199;-80
2021/04/09 10:21:34;;;;;;;7.57;5.53;;;;;;;;;;5072290;28;20544;-80
2021/04/09 10:24:10;;;;;;;6.77;5.50;;;;;;;;;;5073148;28;20175;-79
2021/04/09 10:26:36;;;;;;;7.50;5.77;;;;;;;;;;5073283;28;20171;-79
2021/04/09 10:29:01;;;;;;;11.37;6.90;;;;;;;;;;5073227;28;20228;-80
2021/04/09 10:31:27;;;;;;;6.67;5.37;;;;;;;;;;5073101;28;20258;-79
2021/04/09 10:33:53;;;;;;;6.97;6.00;;;;;;;;;;5053438;28;20184;-80
2021/04/09 10:36:26;;;;;;;7.13;6.07;;;;;;;;;;5051017;28;20172;-80
2021/04/09 10:38:55;;;;;;;7.27;5.80;;;;;;;;;;5052689;28;20558;-80
2021/04/09 10:41:23;;;;;;;8.43;5.63;;;;;;;;;;5071194;28;20551;-79
2021/04/09 10:44:07;;;;;;;6.70;6.03;;;;;;;;;;5071332;28;20183;-79
2021/04/09 10:46:33;;;;;;;17.70;9.37;;;;;;;;;;5076091;28;20248;-80
2021/04/09 10:49:09;;;;;;;8.17;6.10;;;;;;;;;;5076011;28;20179;-80
2021/04/09 10:51:37;;;;;;;9.03;5.93;;;;;;;;;;5076504;28;20191;-80
2021/04/09 10:54:05;;;;;;;9.03;6.67;;;;;;;;;;5076620;28;20174;-79
2021/04/09 10:56:31;;;;;;;6.50;5.87;;;;;;;;;;5076264;28;20171;-79
2021/04/09 10:58:56;;;;;;;6.43;5.60;;;;;;;;;;5076252;28;20210;-79
2021/04/09 11:01:25;;;;;;;5.83;5.07;;;;;;;;;;5070380;28;20199;-79
2021/04/09 11:03:52;;;;;;;9.23;5.90;;;;;;;;;;5066819;28;20167;-80
2021/04/09 11:06:18;;;;;;;9.07;6.90;;;;;;;;;;5065510;28;20180;-80
2021/04/09 11:08:43;;;;;;;6.80;6.10;;;;;;;;;;5064480;28;20175;-80
2021/04/09 11:11:13;;;;;;;9.97;6.80;;;;;;;;;;5066970;28;20237;-79
2021/04/09 11:13:39;;;;;;;7.90;5.80;;;;;;;;;;5070675;28;20288;-80
2021/04/09 11:16:05;;;;;;;9.13;6.43;;;;;;;;;;5075855;28;20171;-79
2021/04/09 11:18:49;;;;;;;8.10;6.33;;;;;;;;;;5075892;28;20603;-80
2021/04/09 11:21:15;;;;;;;10.23;6.63;;;;;;;;;;5075662;28;20685;-80
2021/04/09 11:23:40;;;;;;;8.03;6.90;;;;;;;;;;5076186;28;20207;-80
2021/04/09 11:26:15;;;;;;;8.73;7.07;;;;;;;;;;5075777;28;20501;-80
2021/04/09 11:28:41;;;;;;;6.90;5.90;;;;;;;;;;5076055;28;20305;-80
2021/04/09 11:31:08;;;;;;;6.67;5.73;;;;;;;;;;5069405;28;20604;-80
2021/04/09 11:33:34;;;;;;;9.17;6.30;;;;;;;;;;5075654;28;20237;-80
2021/04/09 11:36:14;;;;;;;7.53;6.03;;;;;;;;;;5062889;28;20635;-79
2021/04/09 11:38:40;;;;;;;9.30;5.80;;;;;;;;;;5056154;28;20291;-80
2021/04/09 11:41:23;;;;;;;7.67;5.80;;;;;;;;;;5075217;28;20199;-79
2021/04/09 11:43:48;;;;;;;6.97;6.00;;;;;;;;;;5075483;28;20159;-79
2021/04/09 11:46:30;;;;;;;7.17;5.90;;;;;;;;;;5075384;28;20179;-79
2021/04/09 11:49:00;;;;;;;8.47;6.40;;;;;;;;;;5074726;28;20720;-80
2021/04/09 11:51:25;;;;;;;7.80;6.20;;;;;;;;;;5075390;28;20174;-79
2021/04/09 11:54:06;;;;;;;8.97;6.83;;;;;;;;;;5075288;28;20168;-80
2021/04/09 11:56:44;;;;;;;7.60;6.77;;;;;;;;;;5074790;28;20496;-80
2021/04/09 11:59:13;;;;;;;7.83;6.93;;;;;;;;;;5074951;28;20199;-80
2021/04/09 12:01:39;;;;;;;7.63;6.83;;;;;;;;;;5074920;28;20622;-79
2021/04/09 12:04:05;;;;;;;8.47;7.17;;;;;;;;;;5074805;28;20262;-80
2021/04/09 12:06:37;;;;;;;9.23;7.43;;;;;;;;;;5074573;28;20232;-80
2021/04/09 12:09:03;;;;;;;7.80;7.00;;;;;;;;;;5074886;28;20175;-79
2021/04/09 12:11:29;;;;;;;8.70;6.63;;;;;;;;;;5074993;28;20193;-79
2021/04/09 12:13:54;;;;;;;7.43;6.70;;;;;;;;;;5074326;28;20235;-79
2021/04/09 12:16:20;;;;;;;10.07;7.30;;;;;;;;;;5074830;28;20162;-80
2021/04/09 12:18:46;;;;;;;9.00;7.20;;;;;;;;;;5074120;28;20205;-79
2021/04/09 12:21:11;;;;;;;9.63;7.43;;;;;;;;;;5072826;28;20167;-80
2021/04/09 12:23:36;;;;;;;8.50;7.63;;;;;;;;;;5072638;28;20254;-79
2021/04/09 12:26:02;;;;;;;8.43;7.33;;;;;;;;;;5072487;28;20206;-80
2021/04/09 12:28:28;;;;;;;8.50;7.60;;;;;;;;;;5072612;28;20285;-80
2021/04/09 12:30:53;;;;;;;7.67;6.90;;;;;;;;;;5072565;28;20198;-80
2021/04/09 12:33:19;;;;;;;12.33;8.50;;;;;;;;;;5072295;28;20202;-80
2021/04/09 12:35:44;;;;;;;8.83;7.93;;;;;;;;;;5072825;28;20621;-80
2021/04/09 12:38:10;;;;;;;14.33;8.77;;;;;;;;;;5072806;28;20171;-80
2021/04/09 12:40:35;;;;;;;10.47;7.97;;;;;;;;;;5072403;28;20268;-79
2021/04/09 12:43:00;;;;;;;9.40;7.57;;;;;;;;;;5072442;28;20221;-79
2021/04/09 12:45:26;;;;;;;10.20;7.60;;;;;;;;;;5072588;28;20233;-80
2021/04/09 12:47:51;;;;;;;10.27;7.30;;;;;;;;;;5072099;28;20254;-81
2021/04/09 12:50:16;;;;;;;9.90;7.63;;;;;;;;;;5072339;28;20171;-80
2021/04/09 12:52:42;;;;;;;10.37;8.47;;;;;;;;;;5072355;28;20175;-80
2021/04/09 12:55:07;;;;;;;9.83;7.27;;;;;;;;;;5072246;28;20202;-80
2021/04/09 12:57:32;;;;;;;11.53;8.13;;;;;;;;;;5072352;28;20175;-80
2021/04/09 12:59:58;;;;;;;8.20;7.17;;;;;;;;;;5071902;28;20206;-80
2021/04/09 13:02:23;;;;;;;11.23;8.43;;;;;;;;;;5072129;28;20179;-80
2021/04/09 13:04:48;;;;;;;12.03;7.50;;;;;;;;;;5071942;28;20171;-80
2021/04/09 13:07:15;;;;;;;8.80;7.90;;;;;;;;;;5063436;28;20654;-80
2021/04/09 13:09:40;;;;;;;8.37;7.57;;;;;;;;;;5054342;28;20176;-80
2021/04/09 13:12:06;;;;;;;8.53;7.63;;;;;;;;;;5051854;28;20684;-78
2021/04/09 13:14:31;;;;;;;8.40;7.43;;;;;;;;;;5051984;28;20220;-80
2021/04/09 13:16:56;;;;;;;9.53;7.60;;;;;;;;;;5052062;28;20172;-80
2021/04/09 13:19:22;;;;;;;10.30;8.30;;;;;;;;;;5060671;28;20561;-80
2021/04/09 13:21:47;;;;;;;8.40;7.50;;;;;;;;;;5064328;28;20224;-79
2021/04/09 13:24:13;;;;;;;8.33;7.20;;;;;;;;;;5055943;28;20179;-79
2021/04/09 13:26:38;;;;;;;8.70;7.40;;;;;;;;;;5069768;28;20172;-79
2021/04/09 13:29:04;;;;;;;11.33;7.90;;;;;;;;;;5060115;28;20245;-79
2021/04/09 13:31:29;;;;;;;8.27;6.93;;;;;;;;;;5064281;28;20672;-79
2021/04/09 13:33:54;;;;;;;7.90;7.10;;;;;;;;;;5070176;28;20183;-79
2021/04/09 13:36:20;;;;;;;7.53;6.50;;;;;;;;;;5057801;28;20171;-79
2021/04/09 13:38:45;;;;;;;7.53;6.63;;;;;;;;;;5067160;28;20207;-79
2021/04/09 13:41:11;;;;;;;8.93;7.13;;;;;;;;;;5062007;28;20168;-79
2021/04/09 13:43:38;;;;;;;10.97;7.60;;;;;;;;;;5067964;28;20695;-79
2021/04/09 13:46:03;;;;;;;8.57;6.70;;;;;;;;;;5055585;28;20239;-79
2021/04/09 13:48:28;;;;;;;8.07;6.70;;;;;;;;;;5067665;28;20180;-79
2021/04/09 13:54:00;;;;;;;8.93;6.70;;;;;;;;;;5062631;28;20187;-80
2021/04/09 13:56:25;;;;;;;13.73;8.93;;;;;;;;;;5072052;28;20171;-80
2021/04/09 13:58:51;;;;;;;10.20;8.30;;;;;;;;;;5064019;28;20203;-80
2021/04/09 14:01:16;;;;;;;9.40;7.90;;;;;;;;;;5065682;28;20213;-79
2021/04/09 14:03:42;;;;;;;8.17;6.87;;;;;;;;;;5057219;28;20164;-80
2021/04/09 14:06:07;;;;;;;8.63;6.80;;;;;;;;;;5069914;28;20172;-80
2021/04/09 14:08:33;;;;;;;9.07;6.67;;;;;;;;;;5061470;28;20203;-80
2021/04/09 14:10:58;;;;;;;9.03;7.53;;;;;;;;;;5069028;28;20712;-80
2021/04/09 14:13:24;;;;;;;9.73;7.30;;;;;;;;;;5054860;28;20247;-80
2021/04/09 14:15:49;;;;;;;7.43;6.53;;;;;;;;;;5064873;28;20211;-81
2021/04/09 14:18:17;;;;;;;8.27;6.90;;;;;;;;;;5063294;28;20198;-80
2021/04/09 14:20:43;;;;;;;8.03;7.23;;;;;;;;;;5068872;28;20360;-80
2021/04/09 14:23:09;;;;;;;8.53;7.00;;;;;;;;;;5066303;28;20207;-80
2021/04/09 14:25:34;;;;;;;8.57;6.97;;;;;;;;;;5064776;28;20187;-80
2021/04/09 14:27:59;;;;;;;9.63;6.90;;;;;;;;;;5076924;28;20175;-80
2021/04/09 14:30:26;;;;;;;9.10;6.37;;;;;;;;;;5076850;28;20171;-79